createdAt,value
2022-11-26T00:00:57.411Z,6.30
2022-11-26T00:03:25.515Z,5.90
2022-11-26T00:05:57.023Z,5.50
2022-11-26T00:08:30.418Z,5.47
2022-11-26T00:10:58.753Z,5.23
2022-11-26T00:13:30.957Z,5.77
2022-11-26T00:15:58.823Z,5.30
2022-11-26T00:18:27.356Z,5.30
2022-11-26T00:21:00.697Z,5.37
2022-11-26T00:23:29.875Z,4.80
2022-11-26T00:25:59.470Z,5.13
2022-11-26T00:28:31.414Z,5.23
2022-11-26T00:31:01.355Z,5.10
2022-11-26T00:33:30.094Z,5.03
2022-11-26T00:36:00.395Z,4.50
2022-11-26T00:38:29.022Z,5.00
2022-11-26T00:40:56.992Z,4.90
2022-11-26T00:43:24.782Z,4.77
2022-11-26T00:45:54.016Z,4.87
2022-11-26T00:48:21.853Z,4.73
2022-11-26T00:50:51.864Z,5.03
2022-11-26T00:53:23.508Z,5.63
2022-11-26T00:55:51.872Z,5.17
2022-11-26T00:58:26.189Z,5.30
2022-11-26T01:00:56.923Z,4.90
2022-11-26T01:03:25.124Z,5.17
2022-11-26T01:05:54.565Z,4.60
2022-11-26T01:08:29.764Z,4.97
2022-11-26T01:10:57.767Z,4.93
2022-11-26T01:13:26.253Z,5.00
2022-11-26T01:15:56.581Z,5.07
2022-11-26T01:18:25.075Z,4.70
2022-11-26T01:20:52.910Z,4.70
2022-11-26T01:23:21.640Z,4.53
2022-11-26T01:25:49.595Z,4.37
2022-11-26T01:28:19.832Z,4.20
2022-11-26T01:30:47.910Z,4.63
2022-11-26T01:33:17.039Z,4.27
2022-11-26T01:35:44.857Z,4.10
2022-11-26T01:38:15.100Z,4.60
2022-11-26T01:40:56.024Z,4.40
2022-11-26T01:43:27.939Z,4.63
2022-11-26T01:45:56.316Z,4.37
2022-11-26T01:48:29.257Z,4.20
2022-11-26T01:51:02.504Z,4.17
2022-11-26T01:53:46.953Z,4.37
2022-11-26T01:56:28.450Z,4.17
2022-11-26T01:59:01.798Z,4.70
2022-11-26T02:01:29.746Z,4.40
2022-11-26T02:04:11.184Z,4.67
2022-11-26T02:06:39.654Z,4.47
2022-11-26T02:09:10.546Z,4.10
2022-11-26T02:11:39.523Z,4.30
2022-11-26T02:14:10.362Z,4.03
2022-11-26T02:17:05.717Z,4.00
2022-11-26T02:20:04.561Z,4.40
2022-11-26T02:22:59.183Z,4.30
2022-11-26T02:25:39.154Z,4.03
2022-11-26T02:28:35.440Z,3.83
2022-11-26T02:31:10.682Z,4.23
2022-11-26T02:33:51.795Z,4.00
2022-11-26T02:36:25.395Z,4.13
2022-11-26T02:38:53.888Z,4.03
2022-11-26T02:41:21.766Z,3.60
2022-11-26T02:43:49.805Z,3.80
2022-11-26T02:46:21.082Z,4.00
2022-11-26T02:48:52.968Z,4.17
2022-11-26T02:51:24.601Z,3.80
2022-11-26T02:53:53.496Z,3.90
2022-11-26T02:56:23.654Z,4.27
2022-11-26T02:58:53.448Z,3.80
2022-11-26T03:01:29.374Z,4.00
2022-11-26T03:04:01.983Z,4.30
2022-11-26T03:06:33.874Z,4.17
2022-11-26T03:09:02.040Z,4.23
2022-11-26T03:11:29.911Z,4.23
2022-11-26T03:13:57.767Z,4.20
2022-11-26T03:16:27.043Z,4.57
2022-11-26T03:18:54.842Z,3.90
2022-11-26T03:21:22.655Z,4.57
2022-11-26T03:23:50.420Z,4.40
2022-11-26T03:26:18.204Z,4.20
2022-11-26T03:28:46.034Z,4.60
2022-11-26T03:31:13.882Z,4.90
2022-11-26T03:33:43.145Z,4.60
2022-11-26T03:36:11.048Z,4.93
2022-11-26T03:38:38.814Z,4.47
2022-11-26T03:41:06.781Z,4.50
2022-11-26T03:43:34.716Z,4.80
2022-11-26T03:46:02.534Z,4.17
2022-11-26T03:48:30.326Z,4.67
2022-11-26T03:50:59.465Z,4.60
2022-11-26T03:53:27.460Z,5.13
2022-11-26T03:55:55.233Z,4.67
2022-11-26T03:58:23.099Z,4.30
2022-11-26T04:00:50.932Z,4.73
2022-11-26T04:03:18.707Z,4.80
2022-11-26T04:05:46.552Z,4.30
2022-11-26T04:08:15.672Z,4.83
2022-11-26T04:10:44.551Z,4.97
2022-11-26T04:13:12.293Z,4.70
2022-11-26T04:15:41.146Z,4.67
2022-11-26T04:18:09.060Z,4.77
2022-11-26T04:20:36.819Z,5.23
2022-11-26T04:23:04.563Z,5.00
2022-11-26T04:25:33.684Z,4.87
2022-11-26T04:28:01.504Z,5.00
2022-11-26T04:30:30.107Z,5.20
2022-11-26T04:32:57.979Z,5.67
2022-11-26T04:35:25.835Z,5.40
2022-11-26T04:37:53.590Z,5.13
2022-11-26T04:40:21.868Z,4.93
2022-11-26T04:42:50.992Z,5.20
2022-11-26T04:45:18.993Z,4.80
2022-11-26T04:47:46.802Z,5.23
2022-11-26T04:50:14.562Z,5.27
2022-11-26T04:52:42.317Z,5.23
2022-11-26T04:55:10.741Z,5.47
2022-11-26T04:57:38.474Z,5.60
2022-11-26T05:00:09.378Z,5.83
2022-11-26T05:02:37.204Z,5.37
2022-11-26T05:05:05.243Z,5.60
2022-11-26T05:07:33.213Z,5.23
2022-11-26T05:10:01.215Z,4.97
2022-11-26T05:12:28.971Z,5.63
2022-11-26T05:14:56.710Z,5.73
2022-11-26T05:17:25.859Z,9.10
2022-11-26T05:19:53.651Z,6.73
2022-11-26T05:22:21.482Z,5.60
2022-11-26T05:24:49.323Z,5.90
2022-11-26T05:27:17.105Z,6.13
2022-11-26T05:29:45.132Z,5.07
2022-11-26T05:32:12.918Z,5.87
2022-11-26T05:34:42.033Z,5.57
2022-11-26T05:37:10.068Z,5.63
2022-11-26T05:39:37.832Z,5.77
2022-11-26T05:42:09.373Z,5.50
2022-11-26T05:44:38.028Z,5.07
2022-11-26T05:47:06.177Z,5.40
2022-11-26T05:49:33.996Z,5.27
2022-11-26T05:52:03.173Z,5.07
2022-11-26T05:54:30.914Z,5.00
2022-11-26T05:57:00.401Z,4.50
2022-11-26T05:59:28.752Z,4.80
2022-11-26T06:01:56.724Z,4.90
2022-11-26T06:04:24.688Z,4.67
2022-11-26T06:06:53.028Z,4.70
2022-11-26T06:09:22.296Z,4.40
2022-11-26T06:11:50.513Z,4.43
2022-11-26T06:14:18.692Z,4.80
2022-11-26T06:16:46.632Z,4.63
2022-11-26T06:19:14.606Z,4.77
2022-11-26T06:21:42.393Z,4.80
2022-11-26T06:24:10.182Z,4.27
2022-11-26T06:26:42.295Z,4.87
2022-11-26T06:29:10.108Z,5.13
2022-11-26T06:31:37.961Z,3.73
2022-11-26T06:34:05.848Z,4.50
2022-11-26T06:36:33.648Z,5.07
2022-11-26T06:39:01.388Z,4.73
2022-11-26T06:41:29.159Z,4.70
2022-11-26T06:43:59.751Z,4.73
2022-11-26T06:46:27.569Z,4.03
2022-11-26T06:48:55.458Z,4.23
2022-11-26T06:51:27.643Z,4.00
2022-11-26T06:53:55.655Z,4.03
2022-11-26T06:56:23.431Z,3.80
2022-11-26T06:58:54.960Z,3.80
2022-11-26T07:01:25.971Z,4.50
2022-11-26T07:03:54.551Z,12.83
2022-11-26T07:06:24.017Z,5.13
2022-11-26T07:08:53.901Z,3.90
2022-11-26T07:11:22.356Z,3.67
2022-11-26T07:13:50.161Z,5.60
2022-11-26T07:16:18.109Z,3.60
2022-11-26T07:18:50.876Z,3.93
2022-11-26T07:21:19.885Z,2.60
2022-11-26T07:23:48.786Z,2.80
2022-11-26T07:26:17.752Z,2.40
2022-11-26T07:28:47.239Z,2.93
2022-11-26T07:31:17.311Z,2.70
2022-11-26T07:33:45.949Z,2.40
2022-11-26T07:36:17.464Z,3.67
2022-11-26T07:38:45.375Z,2.57
2022-11-26T07:41:15.082Z,2.30
2022-11-26T07:43:44.028Z,2.50
2022-11-26T07:46:17.101Z,3.03
2022-11-26T07:48:45.533Z,8.80
2022-11-26T07:51:20.191Z,3.70
2022-11-26T07:53:48.135Z,4.67
2022-11-26T07:56:16.370Z,2.90
2022-11-26T07:58:44.226Z,3.00
2022-11-26T08:01:14.621Z,2.77
2022-11-26T08:03:45.959Z,2.37
2022-11-26T08:06:16.082Z,2.20
2022-11-26T08:08:45.315Z,2.60
2022-11-26T08:11:15.823Z,2.40
2022-11-26T08:13:44.409Z,2.20
2022-11-26T08:16:12.777Z,2.53
2022-11-26T08:18:41.199Z,2.13
2022-11-26T08:21:09.237Z,2.87
2022-11-26T08:23:37.427Z,2.80
2022-11-26T08:26:23.763Z,2.80
2022-11-26T08:28:52.068Z,2.30
2022-11-26T08:31:21.284Z,2.50
2022-11-26T08:33:49.198Z,4.90
2022-11-26T08:36:17.342Z,2.67
2022-11-26T08:38:45.204Z,3.13
2022-11-26T08:41:14.925Z,2.83
2022-11-26T08:46:31.722Z,2.60
2022-11-26T08:48:59.598Z,2.60
2022-11-26T08:51:27.479Z,2.97
2022-11-26T08:53:55.245Z,3.00
2022-11-26T08:56:26.651Z,2.57
2022-11-26T08:58:54.458Z,2.60
2022-11-26T09:01:24.463Z,3.50
2022-11-26T09:03:54.244Z,2.57
2022-11-26T09:06:23.781Z,2.53
2022-11-26T09:09:09.469Z,3.10
2022-11-26T09:11:41.373Z,2.90
2022-11-26T09:14:09.717Z,4.07
2022-11-26T09:16:37.882Z,3.10
2022-11-26T09:19:07.291Z,3.03
2022-11-26T09:21:36.345Z,2.77
2022-11-26T09:24:04.847Z,2.60
2022-11-26T09:26:33.453Z,2.37
2022-11-26T09:29:03.216Z,3.10
2022-11-26T09:31:31.293Z,2.70
2022-11-26T09:34:00.211Z,3.23
2022-11-26T09:36:28.363Z,3.00
2022-11-26T09:38:56.347Z,3.30
2022-11-26T09:41:36.187Z,3.37
2022-11-26T09:44:22.137Z,3.57
2022-11-26T09:47:15.356Z,3.87
2022-11-26T09:49:56.239Z,3.40
2022-11-26T09:52:27.955Z,7.20
2022-11-26T09:55:04.008Z,3.50
2022-11-26T09:57:38.280Z,3.40
2022-11-26T10:00:22.458Z,3.67
2022-11-26T10:02:53.447Z,3.67
2022-11-26T10:05:24.039Z,3.10
2022-11-26T10:08:03.625Z,3.17
2022-11-26T10:10:37.915Z,3.30
2022-11-26T10:13:19.511Z,3.50
2022-11-26T10:15:59.241Z,3.40
2022-11-26T10:18:35.543Z,3.50
2022-11-26T10:21:27.416Z,3.70
2022-11-26T10:24:05.473Z,3.40
2022-11-26T10:26:37.047Z,3.70
2022-11-26T10:29:24.309Z,5.13
2022-11-26T10:31:59.744Z,3.80
2022-11-26T10:34:39.458Z,3.77
2022-11-26T10:37:07.841Z,3.83
2022-11-26T10:39:35.682Z,4.27
2022-11-26T10:42:05.857Z,3.53
2022-11-26T10:44:37.413Z,3.77
2022-11-26T10:47:28.692Z,3.50
2022-11-26T10:50:39.528Z,4.07
2022-11-26T10:53:06.113Z,3.60
2022-11-26T10:55:40.588Z,4.07
2022-11-26T10:58:17.277Z,5.00
2022-11-26T11:00:55.217Z,4.57
2022-11-26T11:03:59.333Z,4.90
2022-11-26T11:06:28.844Z,5.70
2022-11-26T11:08:56.949Z,5.20
2022-11-26T11:11:28.112Z,5.10
2022-11-26T11:13:56.829Z,4.90
2022-11-26T11:16:28.471Z,5.50
2022-11-26T11:18:59.169Z,5.57
2022-11-26T11:21:34.930Z,5.67
2022-11-26T11:24:14.314Z,6.70
2022-11-26T11:26:45.334Z,7.07
2022-11-26T11:29:34.076Z,6.97
2022-11-26T11:32:04.528Z,8.03
2022-11-26T11:34:38.249Z,12.30
2022-11-26T11:37:15.188Z,9.13
2022-11-26T11:39:44.383Z,10.50
2022-11-26T11:42:21.971Z,11.07
2022-11-26T11:44:52.460Z,10.20
2022-11-26T11:47:35.671Z,10.97
2022-11-26T11:50:17.876Z,11.13
2022-11-26T11:52:57.365Z,12.23
2022-11-26T11:55:37.553Z,11.47
2022-11-26T11:58:18.407Z,11.43
2022-11-26T12:00:53.452Z,11.73
2022-11-26T12:03:44.678Z,11.53
2022-11-26T12:06:24.060Z,10.20
2022-11-26T12:09:03.532Z,14.80
2022-11-26T12:11:43.287Z,10.63
2022-11-26T12:14:18.855Z,10.10
2022-11-26T12:16:51.115Z,8.53
2022-11-26T12:19:28.788Z,8.80
2022-11-26T12:22:06.910Z,9.63
2022-11-26T12:24:41.915Z,9.63
2022-11-26T12:27:21.788Z,11.57
2022-11-26T12:29:55.376Z,9.00
2022-11-26T12:32:31.907Z,8.97
2022-11-26T12:35:05.784Z,8.30
2022-11-26T12:37:40.615Z,7.70
2022-11-26T12:40:20.532Z,8.10
2022-11-26T12:42:59.022Z,7.43
2022-11-26T12:45:39.806Z,7.70
2022-11-26T12:48:19.368Z,8.13
2022-11-26T12:50:51.870Z,7.13
2022-11-26T12:53:32.886Z,7.10
2022-11-26T12:56:10.539Z,7.23
2022-11-26T12:58:45.709Z,6.60
2022-11-26T13:01:13.697Z,6.90
2022-11-26T13:03:42.930Z,6.33
2022-11-26T13:06:21.188Z,6.73
2022-11-26T13:08:59.938Z,6.80
2022-11-26T13:11:37.633Z,6.13
2022-11-26T13:14:13.936Z,5.80
2022-11-26T13:16:48.222Z,5.70
2022-11-26T13:19:23.843Z,5.70
2022-11-26T13:22:14.401Z,6.20
2022-11-26T13:25:00.986Z,6.23
2022-11-26T13:27:42.982Z,5.80
2022-11-26T13:30:18.359Z,5.50
2022-11-26T13:33:32.883Z,6.90
2022-11-26T13:36:35.907Z,5.77
2022-11-26T13:39:13.929Z,6.20
2022-11-26T13:42:05.039Z,5.63
2022-11-26T13:44:56.634Z,6.37
2022-11-26T13:47:30.102Z,6.00
2022-11-26T13:50:03.340Z,5.47
2022-11-26T13:52:36.176Z,5.53
2022-11-26T13:55:10.102Z,5.60
2022-11-26T13:57:43.013Z,5.50
2022-11-26T14:00:12.493Z,5.17
2022-11-26T14:02:44.501Z,5.33
2022-11-26T14:05:14.568Z,5.30
2022-11-26T14:07:42.673Z,5.40
2022-11-26T14:10:43.725Z,5.30
2022-11-26T14:13:15.760Z,5.53
2022-11-26T14:15:55.393Z,6.43
2022-11-26T14:19:05.973Z,5.83
2022-11-26T14:22:00.962Z,7.57
2022-11-26T14:24:57.421Z,8.70
2022-11-26T14:27:27.114Z,6.77
2022-11-26T14:30:01.189Z,7.47
2022-11-26T14:32:33.719Z,6.80
2022-11-26T14:35:01.524Z,7.00
2022-11-26T14:37:31.841Z,6.57
2022-11-26T14:40:00.925Z,6.97
2022-11-26T14:42:29.448Z,7.10
2022-11-26T14:45:06.605Z,8.03
2022-11-26T14:47:34.817Z,6.70
2022-11-26T14:50:05.774Z,7.00
2022-11-26T14:52:35.849Z,6.87
2022-11-26T14:55:07.546Z,6.87
2022-11-26T14:57:47.178Z,7.80
2022-11-26T15:00:25.860Z,10.63
2022-11-26T15:02:54.298Z,8.87
2022-11-26T15:05:24.937Z,8.90
2022-11-26T15:08:02.408Z,8.83
2022-11-26T15:10:33.971Z,8.13
2022-11-26T15:13:06.958Z,9.07
2022-11-26T15:15:36.187Z,9.77
2022-11-26T15:18:06.642Z,8.13
2022-11-26T15:20:34.868Z,10.60
2022-11-26T15:23:06.673Z,9.37
2022-11-26T15:25:37.254Z,8.03
2022-11-26T15:28:07.273Z,8.17
2022-11-26T15:30:38.449Z,7.70
2022-11-26T15:33:15.066Z,6.90
2022-11-26T15:35:43.793Z,7.80
2022-11-26T15:38:15.461Z,8.13
2022-11-26T15:40:48.428Z,7.80
2022-11-26T15:43:23.583Z,7.70
2022-11-26T15:45:54.249Z,7.70
2022-11-26T15:48:44.075Z,8.30
2022-11-26T15:51:22.521Z,7.47
2022-11-26T15:53:51.633Z,7.50
2022-11-26T15:56:21.974Z,7.27
2022-11-26T15:58:55.036Z,7.27
2022-11-26T16:01:27.190Z,7.50
2022-11-26T16:03:56.500Z,7.80
2022-11-26T16:06:34.356Z,8.00
2022-11-26T16:09:07.154Z,8.30
2022-11-26T16:11:37.884Z,7.80
2022-11-26T16:14:29.477Z,8.83
2022-11-26T16:17:03.778Z,8.43
2022-11-26T16:19:34.415Z,9.37
2022-11-26T16:22:04.831Z,11.25
2022-11-26T16:24:38.647Z,9.90
2022-11-26T16:27:08.639Z,9.80
2022-11-26T16:29:36.845Z,9.60
2022-11-26T16:32:06.071Z,9.47
2022-11-26T16:34:33.829Z,8.40
2022-11-26T16:37:17.604Z,10.10
2022-11-26T16:39:45.456Z,10.97
2022-11-26T16:42:18.224Z,10.23
2022-11-26T16:44:45.987Z,10.10
2022-11-26T16:47:20.843Z,10.30
2022-11-26T16:49:48.661Z,9.50
2022-11-26T16:52:18.691Z,10.10
2022-11-26T16:54:46.711Z,10.90
2022-11-26T16:57:16.937Z,11.07
2022-11-26T16:59:46.576Z,10.33
2022-11-26T17:02:18.157Z,10.77
2022-11-26T17:04:46.411Z,11.20
2022-11-26T17:07:15.340Z,11.03
2022-11-26T17:09:43.758Z,11.07
2022-11-26T17:12:17.084Z,11.40
2022-11-26T17:14:47.216Z,12.03
2022-11-26T17:17:20.605Z,11.77
2022-11-26T17:19:51.742Z,12.70
2022-11-26T17:22:20.242Z,12.00
2022-11-26T17:24:48.071Z,12.53
2022-11-26T17:27:17.990Z,12.13
2022-11-26T17:29:54.591Z,12.30
2022-11-26T17:32:23.742Z,12.40
2022-11-26T17:34:51.557Z,10.77
2022-11-26T17:37:24.787Z,12.40
2022-11-26T17:39:52.978Z,11.43
2022-11-26T17:42:23.729Z,11.63
2022-11-26T17:44:53.008Z,9.97
2022-11-26T17:47:23.842Z,10.93
2022-11-26T17:49:52.495Z,10.73
2022-11-26T17:52:20.638Z,11.23
2022-11-26T17:54:48.558Z,12.37
2022-11-26T17:57:17.887Z,11.90
2022-11-26T17:59:45.869Z,10.40
2022-11-26T18:02:13.743Z,9.30
2022-11-26T18:04:42.994Z,9.33
2022-11-26T18:07:14.815Z,9.20
2022-11-26T18:09:43.214Z,9.40
2022-11-26T18:12:23.149Z,9.83
2022-11-26T18:14:52.772Z,9.43
2022-11-26T18:17:20.655Z,8.60
2022-11-26T18:19:50.976Z,11.57
2022-11-26T18:22:22.565Z,9.60
2022-11-26T18:24:56.397Z,10.77
2022-11-26T18:27:27.209Z,12.50
2022-11-26T18:29:55.554Z,10.60
2022-11-26T18:32:23.487Z,11.23
2022-11-26T18:34:52.863Z,10.50
2022-11-26T18:37:20.619Z,10.73
2022-11-26T18:39:48.529Z,10.40
2022-11-26T18:42:35.990Z,10.30
2022-11-26T18:45:04.513Z,9.47
2022-11-26T18:47:32.385Z,10.03
2022-11-26T18:50:01.515Z,9.43
2022-11-26T18:52:29.411Z,9.93
2022-11-26T18:54:57.301Z,9.20
2022-11-26T18:57:25.156Z,8.97
2022-11-26T18:59:52.982Z,9.53
2022-11-26T19:02:20.869Z,9.20
2022-11-26T19:04:48.912Z,8.90
2022-11-26T19:07:18.148Z,9.27
2022-11-26T19:09:46.115Z,8.90
2022-11-26T19:12:14.191Z,9.20
2022-11-26T19:14:42.017Z,9.20
2022-11-26T19:17:09.869Z,9.57
2022-11-26T19:19:39.208Z,9.00
2022-11-26T19:22:07.359Z,9.50
2022-11-26T19:24:36.690Z,9.47
2022-11-26T19:27:04.521Z,9.20
2022-11-26T19:29:32.328Z,9.10
2022-11-26T19:32:00.088Z,10.57
2022-11-26T19:34:27.901Z,10.17
2022-11-26T19:36:57.748Z,10.17
2022-11-26T19:39:25.787Z,10.90
2022-11-26T19:41:55.319Z,11.17
2022-11-26T19:44:23.230Z,12.70
2022-11-26T19:46:51.153Z,10.90
2022-11-26T19:49:18.909Z,10.23
2022-11-26T19:51:46.768Z,11.50
2022-11-26T19:54:14.640Z,11.57
2022-11-26T19:56:43.034Z,11.90
2022-11-26T19:59:12.481Z,10.87
2022-11-26T20:01:40.288Z,11.53
2022-11-26T20:04:12.289Z,11.07
2022-11-26T20:06:40.133Z,11.00
2022-11-26T20:09:09.467Z,10.03
2022-11-26T20:11:39.331Z,10.37
2022-11-26T20:14:10.596Z,10.67
2022-11-26T20:16:41.841Z,11.23
2022-11-26T20:19:11.804Z,11.03
2022-11-26T20:21:40.204Z,11.87
2022-11-26T20:24:11.871Z,11.57
2022-11-26T20:26:41.709Z,11.23
2022-11-26T20:29:11.840Z,10.87
2022-11-26T20:31:45.227Z,13.83
2022-11-26T20:34:14.295Z,14.67
2022-11-26T20:36:42.097Z,12.47
2022-11-26T20:39:14.078Z,12.67
2022-11-26T20:41:41.826Z,15.70
2022-11-26T20:44:10.125Z,14.80
2022-11-26T20:46:38.002Z,13.47
2022-11-26T20:49:08.190Z,12.77
2022-11-26T20:51:36.054Z,11.80
2022-11-26T20:54:04.014Z,10.73
2022-11-26T20:56:31.957Z,9.57
2022-11-26T20:58:59.759Z,9.03
2022-11-26T21:01:29.457Z,9.27
2022-11-26T21:03:58.192Z,8.77
2022-11-26T21:06:30.357Z,8.87
2022-11-26T21:09:01.481Z,9.20
2022-11-26T21:11:30.163Z,9.30
2022-11-26T21:13:59.738Z,14.43
2022-11-26T21:16:28.443Z,17.27
2022-11-26T21:18:56.439Z,15.77
2022-11-26T21:21:26.265Z,17.50
2022-11-26T21:23:55.809Z,14.80
2022-11-26T21:26:25.311Z,12.60
2022-11-26T21:28:53.731Z,11.73
2022-11-26T21:31:22.274Z,10.33
2022-11-26T21:33:55.673Z,10.33
2022-11-26T21:36:24.791Z,11.30
2022-11-26T21:38:52.849Z,10.57
2022-11-26T21:41:22.728Z,10.83
2022-11-26T21:43:51.713Z,10.50
2022-11-26T21:46:21.348Z,10.80
2022-11-26T21:48:49.300Z,10.40
2022-11-26T21:51:19.072Z,10.63
2022-11-26T21:53:49.494Z,9.73
2022-11-26T21:56:19.613Z,10.70
2022-11-26T21:58:49.474Z,10.60
2022-11-26T22:01:20.220Z,11.60
2022-11-26T22:03:50.534Z,14.90
2022-11-26T22:06:19.507Z,14.77
2022-11-26T22:08:48.372Z,22.53
2022-11-26T22:11:17.811Z,13.17
2022-11-26T22:13:46.177Z,12.40
2022-11-26T22:16:17.310Z,11.33
2022-11-26T22:18:46.301Z,10.97
2022-11-26T22:21:15.994Z,11.27
2022-11-26T22:23:44.947Z,11.37
2022-11-26T22:26:13.318Z,11.07
2022-11-26T22:28:41.506Z,11.57
2022-11-26T22:31:11.465Z,10.33
2022-11-26T22:33:40.952Z,12.00
2022-11-26T22:36:09.636Z,13.73
2022-11-26T22:38:39.463Z,12.77
2022-11-26T22:41:08.926Z,12.13
2022-11-26T22:43:37.704Z,12.27
2022-11-26T22:46:06.979Z,10.90
2022-11-26T22:48:35.310Z,11.43
2022-11-26T22:51:05.209Z,11.37
2022-11-26T22:53:34.301Z,9.77
2022-11-26T22:56:03.899Z,9.07
2022-11-26T22:58:33.862Z,9.30
2022-11-26T23:01:04.169Z,10.13
2022-11-26T23:03:34.530Z,9.17
2022-11-26T23:06:09.035Z,9.17
2022-11-26T23:08:37.583Z,9.60
2022-11-26T23:11:16.779Z,9.13
2022-11-26T23:13:46.466Z,9.87
2022-11-26T23:16:15.430Z,9.00
2022-11-26T23:18:43.415Z,9.40
2022-11-26T23:21:15.748Z,9.40
2022-11-26T23:23:44.338Z,9.27
2022-11-26T23:26:20.396Z,16.03
2022-11-26T23:28:51.320Z,17.37
2022-11-26T23:31:20.820Z,14.33
2022-11-26T23:33:50.859Z,11.40
2022-11-26T23:36:20.840Z,10.47
2022-11-26T23:38:49.025Z,10.50
2022-11-26T23:41:17.428Z,10.43
2022-11-26T23:43:46.792Z,10.80
2022-11-26T23:46:17.193Z,10.90
2022-11-26T23:48:45.789Z,10.30
2022-11-26T23:51:15.831Z,8.73
2022-11-26T23:53:46.899Z,9.00
2022-11-26T23:56:18.474Z,8.50
2022-11-26T23:58:49.557Z,8.13
